sensor_id;sensor_type;location;lat;lon;timestamp;pressure;altitude;pressure_sealevel;temperature;humidity
43147;BME280;28752;48.266;7.402;2023-08-20T00:00:20;99703.59;;;27.41;69.62
43147;BME280;28752;48.266;7.402;2023-08-20T00:02:46;99699.47;;;27.38;69.81
43147;BME280;28752;48.266;7.402;2023-08-20T00:05:12;99704.34;;;27.36;69.88
43147;BME280;28752;48.266;7.402;2023-08-20T00:07:37;99702.13;;;27.33;69.86
43147;BME280;28752;48.266;7.402;2023-08-20T00:10:03;99707.19;;;27.29;69.74
43147;BME280;28752;48.266;7.402;2023-08-20T00:12:29;99704.56;;;27.18;70.07
43147;BME280;28752;48.266;7.402;2023-08-20T00:17:39;99698.03;;;26.97;69.21
43147;BME280;28752;48.266;7.402;2023-08-20T00:20:05;99691.59;;;27.03;69.56
43147;BME280;28752;48.266;7.402;2023-08-20T00:22:35;99688.53;;;26.99;69.52
43147;BME280;28752;48.266;7.402;2023-08-20T00:25:01;99695.63;;;27.00;69.44
43147;BME280;28752;48.266;7.402;2023-08-20T00:27:27;99691.84;;;27.01;69.80
43147;BME280;28752;48.266;7.402;2023-08-20T00:29:53;99691.84;;;27.01;69.84
43147;BME280;28752;48.266;7.402;2023-08-20T00:32:18;99691.75;;;26.96;70.12
43147;BME280;28752;48.266;7.402;2023-08-20T00:34:43;99692.25;;;26.93;70.56
43147;BME280;28752;48.266;7.402;2023-08-20T00:37:08;99692.50;;;26.91;70.56
43147;BME280;28752;48.266;7.402;2023-08-20T00:39:34;99694.03;;;26.87;70.69
43147;BME280;28752;48.266;7.402;2023-08-20T00:41:59;99688.22;;;26.79;70.88
43147;BME280;28752;48.266;7.402;2023-08-20T00:44:24;99696.25;;;26.73;71.24
43147;BME280;28752;48.266;7.402;2023-08-20T00:46:50;99693.59;;;26.62;71.99
43147;BME280;28752;48.266;7.402;2023-08-20T00:49:16;99696.53;;;26.60;72.14
43147;BME280;28752;48.266;7.402;2023-08-20T00:51:42;99702.97;;;26.54;72.21
43147;BME280;28752;48.266;7.402;2023-08-20T00:54:07;99703.56;;;26.56;72.36
43147;BME280;28752;48.266;7.402;2023-08-20T00:56:32;99709.72;;;26.51;72.35
43147;BME280;28752;48.266;7.402;2023-08-20T00:58:57;99719.38;;;26.30;73.54
43147;BME280;28752;48.266;7.402;2023-08-20T01:01:23;99710.84;;;26.38;73.05
43147;BME280;28752;48.266;7.402;2023-08-20T01:03:48;99717.91;;;26.39;72.84
43147;BME280;28752;48.266;7.402;2023-08-20T01:06:27;99714.22;;;26.46;72.68
43147;BME280;28752;48.266;7.402;2023-08-20T01:09:01;99719.56;;;26.40;72.31
43147;BME280;28752;48.266;7.402;2023-08-20T01:11:33;99721.66;;;26.21;72.98
43147;BME280;28752;48.266;7.402;2023-08-20T01:13:59;99710.75;;;26.04;72.73
43147;BME280;28752;48.266;7.402;2023-08-20T01:16:24;99718.88;;;26.04;73.33
43147;BME280;28752;48.266;7.402;2023-08-20T01:18:49;99722.56;;;25.98;73.66
43147;BME280;28752;48.266;7.402;2023-08-20T01:29:04;99728.78;;;25.87;73.39
43147;BME280;28752;48.266;7.402;2023-08-20T01:31:29;99734.34;;;25.92;73.55
43147;BME280;28752;48.266;7.402;2023-08-20T01:33:55;99722.16;;;25.95;73.33
43147;BME280;28752;48.266;7.402;2023-08-20T01:36:20;99729.97;;;25.91;73.80
43147;BME280;28752;48.266;7.402;2023-08-20T01:38:46;99727.97;;;25.86;74.11
43147;BME280;28752;48.266;7.402;2023-08-20T01:41:12;99723.38;;;25.87;74.04
43147;BME280;28752;48.266;7.402;2023-08-20T01:43:37;99727.25;;;25.91;74.42
43147;BME280;28752;48.266;7.402;2023-08-20T01:46:02;99723.97;;;25.89;74.57
43147;BME280;28752;48.266;7.402;2023-08-20T01:48:27;99718.06;;;25.92;74.46
43147;BME280;28752;48.266;7.402;2023-08-20T01:50:52;99718.81;;;25.76;74.95
43147;BME280;28752;48.266;7.402;2023-08-20T01:53:18;99714.66;;;25.85;74.94
43147;BME280;28752;48.266;7.402;2023-08-20T01:55:43;99717.94;;;25.87;74.99
43147;BME280;28752;48.266;7.402;2023-08-20T01:58:08;99710.03;;;25.97;74.75
43147;BME280;28752;48.266;7.402;2023-08-20T02:00:33;99709.81;;;25.87;75.32
43147;BME280;28752;48.266;7.402;2023-08-20T02:02:59;99716.84;;;26.12;74.42
43147;BME280;28752;48.266;7.402;2023-08-20T02:05:24;99711.38;;;26.23;73.90
43147;BME280;28752;48.266;7.402;2023-08-20T02:07:49;99707.91;;;26.28;73.92
43147;BME280;28752;48.266;7.402;2023-08-20T02:10:14;99710.72;;;26.16;74.00
43147;BME280;28752;48.266;7.402;2023-08-20T02:12:40;99702.31;;;26.18;73.93
43147;BME280;28752;48.266;7.402;2023-08-20T02:15:05;99708.22;;;26.15;73.81
43147;BME280;28752;48.266;7.402;2023-08-20T02:17:31;99718.69;;;26.23;73.79
43147;BME280;28752;48.266;7.402;2023-08-20T02:19:56;99720.59;;;26.22;73.79
43147;BME280;28752;48.266;7.402;2023-08-20T02:22:21;99730.59;;;26.22;74.18
43147;BME280;28752;48.266;7.402;2023-08-20T02:24:46;99727.88;;;26.22;73.61
43147;BME280;28752;48.266;7.402;2023-08-20T02:27:12;99732.78;;;26.08;73.79
43147;BME280;28752;48.266;7.402;2023-08-20T02:29:37;99730.91;;;26.09;72.89
43147;BME280;28752;48.266;7.402;2023-08-20T02:32:02;99732.53;;;26.10;72.47
43147;BME280;28752;48.266;7.402;2023-08-20T02:34:27;99730.69;;;25.98;73.08
43147;BME280;28752;48.266;7.402;2023-08-20T02:36:52;99716.50;;;25.96;73.03
43147;BME280;28752;48.266;7.402;2023-08-20T02:39:18;99715.94;;;25.82;73.59
43147;BME280;28752;48.266;7.402;2023-08-20T02:41:43;99730.16;;;25.49;75.51
43147;BME280;28752;48.266;7.402;2023-08-20T02:44:08;99727.56;;;25.54;75.86
43147;BME280;28752;48.266;7.402;2023-08-20T02:46:33;99723.34;;;25.46;76.25
43147;BME280;28752;48.266;7.402;2023-08-20T02:48:59;99727.44;;;25.49;76.36
43147;BME280;28752;48.266;7.402;2023-08-20T02:51:24;99719.78;;;25.46;76.64
43147;BME280;28752;48.266;7.402;2023-08-20T02:53:49;99727.09;;;25.45;77.07
43147;BME280;28752;48.266;7.402;2023-08-20T02:56:15;99713.78;;;25.44;77.15
43147;BME280;28752;48.266;7.402;2023-08-20T02:58:40;99718.25;;;25.38;77.63
43147;BME280;28752;48.266;7.402;2023-08-20T03:01:05;99714.72;;;25.38;78.01
43147;BME280;28752;48.266;7.402;2023-08-20T03:03:30;99711.16;;;25.37;77.71
43147;BME280;28752;48.266;7.402;2023-08-20T03:05:56;99708.69;;;25.35;78.10
43147;BME280;28752;48.266;7.402;2023-08-20T03:08:21;99710.34;;;25.36;78.09
43147;BME280;28752;48.266;7.402;2023-08-20T03:10:46;99706.00;;;25.35;78.32
43147;BME280;28752;48.266;7.402;2023-08-20T03:13:11;99710.34;;;25.36;78.55
43147;BME280;28752;48.266;7.402;2023-08-20T03:15:36;99703.19;;;25.42;78.44
43147;BME280;28752;48.266;7.402;2023-08-20T03:18:02;99714.25;;;25.41;78.53
43147;BME280;28752;48.266;7.402;2023-08-20T03:20:28;99703.19;;;25.42;78.48
43147;BME280;28752;48.266;7.402;2023-08-20T03:22:53;99716.50;;;25.44;77.99
43147;BME280;28752;48.266;7.402;2023-08-20T03:25:18;99708.34;;;25.44;78.10
43147;BME280;28752;48.266;7.402;2023-08-20T03:27:44;99705.41;;;25.57;77.47
43147;BME280;28752;48.266;7.402;2023-08-20T03:30:09;99709.41;;;25.43;78.19
43147;BME280;28752;48.266;7.402;2023-08-20T03:32:34;99705.88;;;25.42;77.74
43147;BME280;28752;48.266;7.402;2023-08-20T03:35:00;99707.97;;;25.52;77.79
43147;BME280;28752;48.266;7.402;2023-08-20T03:37:25;99713.63;;;25.50;78.15
43147;BME280;28752;48.266;7.402;2023-08-20T03:39:51;99709.31;;;25.49;78.12
43147;BME280;28752;48.266;7.402;2023-08-20T03:42:16;99707.53;;;25.43;78.58
43147;BME280;28752;48.266;7.402;2023-08-20T03:44:41;99705.88;;;25.42;78.70
43147;BME280;28752;48.266;7.402;2023-08-20T03:47:06;99715.28;;;25.63;76.89
43147;BME280;28752;48.266;7.402;2023-08-20T03:49:32;99717.53;;;25.54;77.28
43147;BME280;28752;48.266;7.402;2023-08-20T03:51:57;99715.63;;;25.67;76.59
43147;BME280;28752;48.266;7.402;2023-08-20T03:54:22;99714.91;;;25.71;76.07
43147;BME280;28752;48.266;7.402;2023-08-20T03:56:47;99712.34;;;25.65;76.18
43147;BME280;28752;48.266;7.402;2023-08-20T03:59:13;99704.69;;;25.62;76.15
43147;BME280;28752;48.266;7.402;2023-08-20T04:01:38;99714.34;;;25.58;76.14
43147;BME280;28752;48.266;7.402;2023-08-20T04:04:03;99721.06;;;25.67;75.72
43147;BME280;28752;48.266;7.402;2023-08-20T04:06:29;99718.59;;;25.65;76.22
43147;BME280;28752;48.266;7.402;2023-08-20T04:08:54;99709.88;;;25.63;76.22
43147;BME280;28752;48.266;7.402;2023-08-20T04:11:19;99713.41;;;25.64;76.16
43147;BME280;28752;48.266;7.402;2023-08-20T04:13:45;99713.63;;;25.62;76.31
43147;BME280;28752;48.266;7.402;2023-08-20T04:16:10;99716.81;;;25.59;76.28
43147;BME280;28752;48.266;7.402;2023-08-20T04:18:35;99715.88;;;25.53;76.75
43147;BME280;28752;48.266;7.402;2023-08-20T04:21:01;99719.19;;;25.56;77.05
43147;BME280;28752;48.266;7.402;2023-08-20T04:23:26;99724.47;;;25.50;77.05
43147;BME280;28752;48.266;7.402;2023-08-20T04:25:51;99715.31;;;25.51;77.17
43147;BME280;28752;48.266;7.402;2023-08-20T04:28:16;99715.63;;;25.55;76.96
43147;BME280;28752;48.266;7.402;2023-08-20T04:30:41;99720.72;;;25.51;76.95
43147;BME280;28752;48.266;7.402;2023-08-20T04:33:07;99719.19;;;25.44;77.05
43147;BME280;28752;48.266;7.402;2023-08-20T04:35:33;99724.38;;;25.57;76.86
43147;BME280;28752;48.266;7.402;2023-08-20T04:37:58;99723.06;;;25.60;76.70
43147;BME280;28752;48.266;7.402;2023-08-20T04:40:23;99734.84;;;25.53;76.22
43147;BME280;28752;48.266;7.402;2023-08-20T04:42:48;99726.84;;;25.47;75.58
43147;BME280;28752;48.266;7.402;2023-08-20T04:45:14;99731.69;;;25.45;75.74
43147;BME280;28752;48.266;7.402;2023-08-20T04:47:39;99731.94;;;25.43;75.94
43147;BME280;28752;48.266;7.402;2023-08-20T04:50:04;99741.13;;;25.42;75.78
43147;BME280;28752;48.266;7.402;2023-08-20T04:52:33;99738.16;;;25.44;75.55
43147;BME280;28752;48.266;7.402;2023-08-20T04:54:58;99743.69;;;25.37;75.77
43147;BME280;28752;48.266;7.402;2023-08-20T04:57:24;99744.78;;;25.36;75.64
43147;BME280;28752;48.266;7.402;2023-08-20T04:59:49;99743.47;;;25.39;75.37
43147;BME280;28752;48.266;7.402;2023-08-20T05:02:14;99749.81;;;25.44;75.33
43147;BME280;28752;48.266;7.402;2023-08-20T05:04:39;99748.63;;;25.40;75.26
43147;BME280;28752;48.266;7.402;2023-08-20T05:07:05;99748.06;;;25.50;74.65
43147;BME280;28752;48.266;7.402;2023-08-20T05:09:33;99754.31;;;25.50;74.69
43147;BME280;28752;48.266;7.402;2023-08-20T05:11:58;99755.38;;;25.38;74.88
43147;BME280;28752;48.266;7.402;2023-08-20T05:14:24;99761.38;;;25.40;75.07
43147;BME280;28752;48.266;7.402;2023-08-20T05:16:49;99766.56;;;25.41;75.14
43147;BME280;28752;48.266;7.402;2023-08-20T05:19:14;99754.53;;;25.49;75.07
43147;BME280;28752;48.266;7.402;2023-08-20T05:21:39;99765.59;;;25.35;75.06
43147;BME280;28752;48.266;7.402;2023-08-20T05:24:05;99759.00;;;25.55;74.82
43147;BME280;28752;48.266;7.402;2023-08-20T05:26:30;99767.25;;;25.72;74.55
43147;BME280;28752;48.266;7.402;2023-08-20T05:28:55;99765.56;;;25.95;73.77
43147;BME280;28752;48.266;7.402;2023-08-20T05:31:20;99765.09;;;26.10;73.17
43147;BME280;28752;48.266;7.402;2023-08-20T05:33:46;99772.41;;;26.21;72.85
43147;BME280;28752;48.266;7.402;2023-08-20T05:36:11;99766.22;;;26.37;71.71
43147;BME280;28752;48.266;7.402;2023-08-20T05:38:36;99763.84;;;26.70;70.75
43147;BME280;28752;48.266;7.402;2023-08-20T05:41:01;99767.44;;;27.04;69.94
43147;BME280;28752;48.266;7.402;2023-08-20T05:43:26;99768.97;;;27.17;68.69
43147;BME280;28752;48.266;7.402;2023-08-20T05:45:52;99769.84;;;27.35;67.52
43147;BME280;28752;48.266;7.402;2023-08-20T05:48:17;99779.69;;;27.58;67.63
43147;BME280;28752;48.266;7.402;2023-08-20T05:50:42;99780.34;;;27.48;67.65
43147;BME280;28752;48.266;7.402;2023-08-20T05:53:07;99788.50;;;27.65;66.74
43147;BME280;28752;48.266;7.402;2023-08-20T05:55:32;99786.69;;;27.93;65.96
43147;BME280;28752;48.266;7.402;2023-08-20T05:57:58;99789.72;;;27.74;66.36
43147;BME280;28752;48.266;7.402;2023-08-20T06:00:24;99788.34;;;27.55;66.88
43147;BME280;28752;48.266;7.402;2023-08-20T06:02:49;99793.34;;;27.63;66.68
43147;BME280;28752;48.266;7.402;2023-08-20T06:05:15;99793.38;;;27.46;66.93
43147;BME280;28752;48.266;7.402;2023-08-20T06:07:40;99793.13;;;27.47;66.79
43147;BME280;28752;48.266;7.402;2023-08-20T06:10:06;99797.25;;;27.50;66.66
43147;BME280;28752;48.266;7.402;2023-08-20T06:12:31;99797.16;;;27.45;67.86
43147;BME280;28752;48.266;7.402;2023-08-20T06:14:56;99799.84;;;27.79;66.21
43147;BME280;28752;48.266;7.402;2023-08-20T06:17:22;99798.88;;;27.68;65.72
43147;BME280;28752;48.266;7.402;2023-08-20T06:19:47;99800.44;;;27.64;66.20
43147;BME280;28752;48.266;7.402;2023-08-20T06:22:12;99805.72;;;27.54;66.94
43147;BME280;28752;48.266;7.402;2023-08-20T06:24:37;99811.09;;;27.48;66.53
43147;BME280;28752;48.266;7.402;2023-08-20T06:27:02;99810.16;;;27.60;67.12
43147;BME280;28752;48.266;7.402;2023-08-20T06:29:28;99809.72;;;27.85;66.00
43147;BME280;28752;48.266;7.402;2023-08-20T06:31:53;99809.69;;;28.46;64.00
43147;BME280;28752;48.266;7.402;2023-08-20T06:34:18;99812.81;;;29.10;62.40
43147;BME280;28752;48.266;7.402;2023-08-20T06:36:43;99809.25;;;30.32;58.36
43147;BME280;28752;48.266;7.402;2023-08-20T06:39:09;99811.34;;;31.65;53.75
43147;BME280;28752;48.266;7.402;2023-08-20T06:41:34;99817.81;;;32.16;52.31
43147;BME280;28752;48.266;7.402;2023-08-20T06:44:00;99825.09;;;32.91;50.36
43147;BME280;28752;48.266;7.402;2023-08-20T06:46:25;99826.34;;;33.43;49.55
43147;BME280;28752;48.266;7.402;2023-08-20T06:48:51;99826.38;;;34.64;45.89
43147;BME280;28752;48.266;7.402;2023-08-20T06:51:19;99825.69;;;35.90;42.58
43147;BME280;28752;48.266;7.402;2023-08-20T06:53:44;99823.44;;;36.34;41.49
43147;BME280;28752;48.266;7.402;2023-08-20T06:56:09;99833.94;;;37.42;39.25
43147;BME280;28752;48.266;7.402;2023-08-20T06:58:36;99838.50;;;37.01;39.10
43147;BME280;28752;48.266;7.402;2023-08-20T07:01:01;99835.81;;;37.10;39.07
43147;BME280;28752;48.266;7.402;2023-08-20T07:03:42;99830.16;;;37.38;38.55
43147;BME280;28752;48.266;7.402;2023-08-20T07:06:07;99831.38;;;37.77;38.03
43147;BME280;28752;48.266;7.402;2023-08-20T07:08:34;99836.38;;;37.75;37.74
43147;BME280;28752;48.266;7.402;2023-08-20T07:10:59;99829.81;;;38.51;36.53
43147;BME280;28752;48.266;7.402;2023-08-20T07:13:24;99831.47;;;38.87;36.24
43147;BME280;28752;48.266;7.402;2023-08-20T07:15:50;99838.63;;;39.79;35.71
43147;BME280;28752;48.266;7.402;2023-08-20T07:18:16;99834.00;;;39.44;35.02
43147;BME280;28752;48.266;7.402;2023-08-20T07:20:44;99842.31;;;39.36;35.00
43147;BME280;28752;48.266;7.402;2023-08-20T07:23:10;99848.19;;;39.99;34.77
43147;BME280;28752;48.266;7.402;2023-08-20T07:25:39;99841.97;;;40.32;34.22
43147;BME280;28752;48.266;7.402;2023-08-20T07:28:05;99849.06;;;39.82;34.11
43147;BME280;28752;48.266;7.402;2023-08-20T07:30:30;99835.41;;;40.37;33.74
43147;BME280;28752;48.266;7.402;2023-08-20T07:32:56;99846.63;;;39.80;34.08
43147;BME280;28752;48.266;7.402;2023-08-20T07:35:21;99833.41;;;38.95;35.34
43147;BME280;28752;48.266;7.402;2023-08-20T07:37:46;99831.41;;;38.34;36.44
43147;BME280;28752;48.266;7.402;2023-08-20T07:40:12;99827.56;;;38.97;35.63
43147;BME280;28752;48.266;7.402;2023-08-20T07:42:38;99826.56;;;39.01;35.44
43147;BME280;28752;48.266;7.402;2023-08-20T07:45:03;99836.56;;;37.02;37.99
43147;BME280;28752;48.266;7.402;2023-08-20T07:47:28;99841.81;;;35.83;40.49
43147;BME280;28752;48.266;7.402;2023-08-20T07:49:54;99836.97;;;35.75;41.41
43147;BME280;28752;48.266;7.402;2023-08-20T07:52:20;99835.16;;;35.70;41.29
43147;BME280;28752;48.266;7.402;2023-08-20T07:54:45;99837.16;;;35.51;40.77
43147;BME280;28752;48.266;7.402;2023-08-20T07:57:10;99827.63;;;35.10;42.21
43147;BME280;28752;48.266;7.402;2023-08-20T07:59:36;99833.69;;;34.07;43.93
43147;BME280;28752;48.266;7.402;2023-08-20T08:02:01;99838.47;;;34.20;43.26
43147;BME280;28752;48.266;7.402;2023-08-20T08:04:26;99842.31;;;33.95;44.34
43147;BME280;28752;48.266;7.402;2023-08-20T08:06:52;99843.50;;;34.37;43.66
43147;BME280;28752;48.266;7.402;2023-08-20T08:09:21;99854.78;;;33.87;44.64
43147;BME280;28752;48.266;7.402;2023-08-20T08:11:47;99844.84;;;34.15;45.47
43147;BME280;28752;48.266;7.402;2023-08-20T08:14:12;99848.13;;;33.35;46.04
43147;BME280;28752;48.266;7.402;2023-08-20T08:16:38;99845.88;;;33.66;46.18
43147;BME280;28752;48.266;7.402;2023-08-20T08:19:03;99859.97;;;33.89;45.78
43147;BME280;28752;48.266;7.402;2023-08-20T08:21:28;99852.63;;;33.20;47.19
43147;BME280;28752;48.266;7.402;2023-08-20T08:23:53;99850.44;;;33.52;46.99
43147;BME280;28752;48.266;7.402;2023-08-20T08:26:19;99854.72;;;33.63;46.80
43147;BME280;28752;48.266;7.402;2023-08-20T08:28:44;99858.88;;;33.90;46.16
43147;BME280;28752;48.266;7.402;2023-08-20T08:31:09;99852.31;;;33.56;46.10
43147;BME280;28752;48.266;7.402;2023-08-20T08:33:34;99857.47;;;33.92;45.72
43147;BME280;28752;48.266;7.402;2023-08-20T08:35:59;99865.34;;;33.40;45.91
43147;BME280;28752;48.266;7.402;2023-08-20T08:38:25;99859.69;;;32.87;47.41
43147;BME280;28752;48.266;7.402;2023-08-20T08:40:50;99862.03;;;33.04;47.26
43147;BME280;28752;48.266;7.402;2023-08-20T08:43:15;99854.81;;;33.18;47.26
43147;BME280;28752;48.266;7.402;2023-08-20T08:45:44;99863.25;;;33.91;46.26
43147;BME280;28752;48.266;7.402;2023-08-20T08:48:10;99872.97;;;33.49;46.93
43147;BME280;28752;48.266;7.402;2023-08-20T08:50:36;99853.69;;;33.24;46.88
43147;BME280;28752;48.266;7.402;2023-08-20T08:53:01;99858.91;;;33.55;46.42
43147;BME280;28752;48.266;7.402;2023-08-20T08:55:26;99859.91;;;33.64;47.27
43147;BME280;28752;48.266;7.402;2023-08-20T08:57:51;99853.44;;;33.21;48.16
43147;BME280;28752;48.266;7.402;2023-08-20T09:00:17;99855.63;;;32.79;48.67
43147;BME280;28752;48.266;7.402;2023-08-20T09:02:42;99855.78;;;32.98;48.74
43147;BME280;28752;48.266;7.402;2023-08-20T09:05:07;99848.53;;;32.63;49.57
43147;BME280;28752;48.266;7.402;2023-08-20T09:07:33;99857.78;;;32.87;49.04
43147;BME280;28752;48.266;7.402;2023-08-20T09:09:58;99850.75;;;33.10;49.14
43147;BME280;28752;48.266;7.402;2023-08-20T09:12:26;99848.75;;;33.56;47.94
43147;BME280;28752;48.266;7.402;2023-08-20T09:14:52;99855.50;;;33.34;47.79
43147;BME280;28752;48.266;7.402;2023-08-20T09:17:19;99855.28;;;33.31;47.86
43147;BME280;28752;48.266;7.402;2023-08-20T09:19:46;99849.06;;;33.20;48.84
43147;BME280;28752;48.266;7.402;2023-08-20T09:22:11;99833.28;;;32.96;49.28
43147;BME280;28752;48.266;7.402;2023-08-20T09:24:41;99848.78;;;33.21;48.57
43147;BME280;28752;48.266;7.402;2023-08-20T09:27:07;99844.69;;;33.14;49.42
43147;BME280;28752;48.266;7.402;2023-08-20T09:29:33;99842.94;;;32.93;50.08
43147;BME280;28752;48.266;7.402;2023-08-20T09:32:02;99847.72;;;33.46;49.00
43147;BME280;28752;48.266;7.402;2023-08-20T09:34:37;99850.22;;;33.77;48.65
43147;BME280;28752;48.266;7.402;2023-08-20T09:37:03;99850.25;;;33.72;48.92
43147;BME280;28752;48.266;7.402;2023-08-20T09:39:29;99856.13;;;33.60;49.05
43147;BME280;28752;48.266;7.402;2023-08-20T09:41:54;99860.53;;;33.27;49.36
43147;BME280;28752;48.266;7.402;2023-08-20T09:44:20;99862.19;;;32.78;50.46
43147;BME280;28752;48.266;7.402;2023-08-20T09:46:46;99856.22;;;32.71;50.94
43147;BME280;28752;48.266;7.402;2023-08-20T09:49:12;99859.63;;;33.37;49.66
43147;BME280;28752;48.266;7.402;2023-08-20T09:51:40;99842.13;;;33.57;49.07
43147;BME280;28752;48.266;7.402;2023-08-20T09:56:32;99848.06;;;33.74;49.00
43147;BME280;28752;48.266;7.402;2023-08-20T09:59:00;99852.06;;;33.18;49.79
43147;BME280;28752;48.266;7.402;2023-08-20T10:01:26;99866.31;;;33.20;49.60
43147;BME280;28752;48.266;7.402;2023-08-20T10:03:52;99861.25;;;33.38;49.03
43147;BME280;28752;48.266;7.402;2023-08-20T10:06:17;99860.69;;;33.70;48.74
43147;BME280;28752;48.266;7.402;2023-08-20T10:08:43;99853.78;;;33.43;48.83
43147;BME280;28752;48.266;7.402;2023-08-20T10:11:10;99851.72;;;33.89;47.92
43147;BME280;28752;48.266;7.402;2023-08-20T10:13:36;99846.09;;;33.80;48.75
43147;BME280;28752;48.266;7.402;2023-08-20T10:16:01;99847.59;;;33.91;48.30
43147;BME280;28752;48.266;7.402;2023-08-20T10:18:27;99838.19;;;33.68;48.95
43147;BME280;28752;48.266;7.402;2023-08-20T10:20:53;99855.13;;;33.51;49.14
43147;BME280;28752;48.266;7.402;2023-08-20T10:23:21;99844.72;;;33.08;48.87
43147;BME280;28752;48.266;7.402;2023-08-20T10:25:50;99835.78;;;33.32;48.09
43147;BME280;28752;48.266;7.402;2023-08-20T10:28:24;99847.25;;;33.39;48.22
43147;BME280;28752;48.266;7.402;2023-08-20T10:33:33;99849.78;;;33.31;48.11
43147;BME280;28752;48.266;7.402;2023-08-20T10:35:58;99852.09;;;33.13;48.43
43147;BME280;28752;48.266;7.402;2023-08-20T10:38:33;99844.81;;;32.93;47.80
43147;BME280;28752;48.266;7.402;2023-08-20T10:41:00;99840.63;;;33.06;47.79
43147;BME280;28752;48.266;7.402;2023-08-20T10:46:01;99835.22;;;32.96;48.11
43147;BME280;28752;48.266;7.402;2023-08-20T10:48:27;99835.44;;;33.04;48.25
43147;BME280;28752;48.266;7.402;2023-08-20T10:50:52;99839.19;;;33.14;47.50
43147;BME280;28752;48.266;7.402;2023-08-20T10:53:17;99844.31;;;32.91;47.69
43147;BME280;28752;48.266;7.402;2023-08-20T10:55:49;99844.03;;;32.92;47.09
43147;BME280;28752;48.266;7.402;2023-08-20T10:58:15;99843.84;;;32.73;47.04
43147;BME280;28752;48.266;7.402;2023-08-20T11:00:42;99832.31;;;32.82;47.84
43147;BME280;28752;48.266;7.402;2023-08-20T11:03:07;99839.78;;;32.66;47.81
43147;BME280;28752;48.266;7.402;2023-08-20T11:05:33;99829.66;;;32.61;47.65
43147;BME280;28752;48.266;7.402;2023-08-20T11:07:59;99830.34;;;32.87;47.02
43147;BME280;28752;48.266;7.402;2023-08-20T11:10:25;99833.81;;;33.38;47.57
43147;BME280;28752;48.266;7.402;2023-08-20T11:12:50;99832.88;;;33.13;46.65
43147;BME280;28752;48.266;7.402;2023-08-20T11:15:16;99824.31;;;33.25;47.17
43147;BME280;28752;48.266;7.402;2023-08-20T11:17:45;99823.00;;;33.22;47.58
43147;BME280;28752;48.266;7.402;2023-08-20T11:20:10;99823.41;;;33.64;47.28
43147;BME280;28752;48.266;7.402;2023-08-20T11:22:37;99818.09;;;33.43;47.28
43147;BME280;28752;48.266;7.402;2023-08-20T11:25:03;99806.19;;;33.29;47.47
43147;BME280;28752;48.266;7.402;2023-08-20T11:27:29;99813.25;;;33.35;48.13
43147;BME280;28752;48.266;7.402;2023-08-20T11:29:54;99808.16;;;33.53;47.24
43147;BME280;28752;48.266;7.402;2023-08-20T11:32:21;99808.34;;;33.32;47.72
43147;BME280;28752;48.266;7.402;2023-08-20T11:34:46;99802.13;;;33.16;47.75
43147;BME280;28752;48.266;7.402;2023-08-20T11:37:12;99806.03;;;33.10;47.83
43147;BME280;28752;48.266;7.402;2023-08-20T11:39:37;99803.22;;;33.25;46.27
43147;BME280;28752;48.266;7.402;2023-08-20T11:42:02;99797.72;;;33.25;46.10
43147;BME280;28752;48.266;7.402;2023-08-20T11:44:27;99801.31;;;33.16;46.36
43147;BME280;28752;48.266;7.402;2023-08-20T11:46:53;99792.31;;;33.44;45.55
43147;BME280;28752;48.266;7.402;2023-08-20T11:49:26;99802.97;;;33.51;45.34
43147;BME280;28752;48.266;7.402;2023-08-20T11:51:51;99797.88;;;33.39;44.59
43147;BME280;28752;48.266;7.402;2023-08-20T11:54:17;99796.47;;;33.66;44.08
43147;BME280;28752;48.266;7.402;2023-08-20T11:56:47;99784.63;;;33.71;44.83
43147;BME280;28752;48.266;7.402;2023-08-20T11:59:13;99786.25;;;33.72;45.25
43147;BME280;28752;48.266;7.402;2023-08-20T12:01:39;99782.69;;;33.76;45.94
43147;BME280;28752;48.266;7.402;2023-08-20T12:04:04;99788.53;;;33.64;45.56
43147;BME280;28752;48.266;7.402;2023-08-20T12:06:30;99772.91;;;33.65;45.68
43147;BME280;28752;48.266;7.402;2023-08-20T12:08:58;99780.13;;;33.56;45.63
43147;BME280;28752;48.266;7.402;2023-08-20T12:11:27;99781.56;;;33.77;45.67
43147;BME280;28752;48.266;7.402;2023-08-20T12:13:52;99770.44;;;33.63;45.73
43147;BME280;28752;48.266;7.402;2023-08-20T12:16:18;99779.28;;;33.60;46.08
43147;BME280;28752;48.266;7.402;2023-08-20T12:18:45;99781.03;;;33.75;45.52
43147;BME280;28752;48.266;7.402;2023-08-20T12:21:10;99778.81;;;34.02;45.23
43147;BME280;28752;48.266;7.402;2023-08-20T12:23:36;99778.06;;;33.96;44.41
43147;BME280;28752;48.266;7.402;2023-08-20T12:26:01;99779.56;;;34.07;45.05
43147;BME280;28752;48.266;7.402;2023-08-20T12:28:27;99773.50;;;34.10;43.23
43147;BME280;28752;48.266;7.402;2023-08-20T12:30:52;99769.38;;;34.32;43.21
43147;BME280;28752;48.266;7.402;2023-08-20T12:33:17;99770.16;;;34.13;44.49
43147;BME280;28752;48.266;7.402;2023-08-20T12:35:42;99766.56;;;33.94;45.52
43147;BME280;28752;48.266;7.402;2023-08-20T12:38:08;99768.50;;;34.12;45.42
43147;BME280;28752;48.266;7.402;2023-08-20T12:40:33;99761.06;;;34.37;44.77
43147;BME280;28752;48.266;7.402;2023-08-20T12:42:59;99764.25;;;34.25;45.23
43147;BME280;28752;48.266;7.402;2023-08-20T12:45:24;99761.94;;;34.32;44.46
43147;BME280;28752;48.266;7.402;2023-08-20T12:47:49;99764.69;;;33.89;45.41
43147;BME280;28752;48.266;7.402;2023-08-20T12:50:15;99752.19;;;33.78;45.32
43147;BME280;28752;48.266;7.402;2023-08-20T12:52:40;99759.91;;;33.71;46.09
43147;BME280;28752;48.266;7.402;2023-08-20T12:55:06;99761.38;;;33.63;46.57
43147;BME280;28752;48.266;7.402;2023-08-20T12:57:33;99758.50;;;33.78;46.84
43147;BME280;28752;48.266;7.402;2023-08-20T12:59:59;99755.81;;;33.73;46.30
43147;BME280;28752;48.266;7.402;2023-08-20T13:02:24;99758.91;;;33.91;45.28
43147;BME280;28752;48.266;7.402;2023-08-20T13:04:49;99751.34;;;34.02;45.28
43147;BME280;28752;48.266;7.402;2023-08-20T13:07:15;99744.00;;;34.16;44.61
43147;BME280;28752;48.266;7.402;2023-08-20T13:09:41;99743.53;;;34.09;44.60